createdAt,value
2023-09-26T00:00:19.061Z,7.22
2023-09-26T00:02:47.028Z,7.38
2023-09-26T00:05:14.351Z,7.78
2023-09-26T00:07:41.892Z,7.47
2023-09-26T00:10:10.690Z,8.18
2023-09-26T00:12:37.574Z,7.72
2023-09-26T00:15:04.800Z,7.22
2023-09-26T00:17:31.705Z,8.10
2023-09-26T00:19:58.578Z,6.97
2023-09-26T00:22:25.956Z,6.88
2023-09-26T00:24:52.858Z,6.85
2023-09-26T00:27:19.579Z,7.75
2023-09-26T00:29:46.305Z,7.07
2023-09-26T00:32:13.149Z,7.43
2023-09-26T00:34:39.948Z,7.18
2023-09-26T00:37:06.752Z,6.63
2023-09-26T00:39:35.758Z,7.05
2023-09-26T00:42:02.427Z,7.03
2023-09-26T00:44:29.094Z,7.28
2023-09-26T00:46:56.415Z,7.00
2023-09-26T00:49:23.703Z,7.20
2023-09-26T00:51:51.093Z,6.97
2023-09-26T00:54:18.215Z,7.43
2023-09-26T00:56:46.308Z,7.90
2023-09-26T00:59:13.491Z,7.25
2023-09-26T01:01:42.045Z,7.05
2023-09-26T01:04:10.058Z,8.05
2023-09-26T01:06:37.808Z,6.82
2023-09-26T01:09:07.144Z,7.75
2023-09-26T01:11:34.457Z,7.75
2023-09-26T01:14:01.535Z,8.77
2023-09-26T01:16:28.732Z,7.50
2023-09-26T01:18:55.856Z,7.63
2023-09-26T01:21:23.161Z,7.82
2023-09-26T01:23:59.237Z,7.25
2023-09-26T01:26:26.468Z,8.05
2023-09-26T01:28:53.611Z,7.32
2023-09-26T01:31:20.976Z,8.63
2023-09-26T01:33:48.143Z,8.10
2023-09-26T01:36:15.286Z,8.57
2023-09-26T01:38:42.346Z,8.68
2023-09-26T01:41:09.449Z,7.57
2023-09-26T01:43:37.716Z,8.07
2023-09-26T01:46:04.824Z,7.88
2023-09-26T01:48:31.813Z,7.25
2023-09-26T01:50:58.884Z,6.82
2023-09-26T01:53:26.136Z,7.20
2023-09-26T01:55:53.235Z,6.45
2023-09-26T01:58:20.304Z,6.72
2023-09-26T02:00:47.414Z,6.35
2023-09-26T02:03:14.498Z,6.68
2023-09-26T02:05:41.766Z,6.95
2023-09-26T02:08:09.190Z,6.55
2023-09-26T02:10:36.454Z,7.43
2023-09-26T02:13:03.756Z,7.65
2023-09-26T02:15:31.013Z,7.60
2023-09-26T02:17:58.140Z,7.28
2023-09-26T02:20:25.328Z,6.70
2023-09-26T02:22:53.522Z,7.82
2023-09-26T02:25:21.407Z,8.13
2023-09-26T02:27:48.984Z,7.68
2023-09-26T02:30:16.826Z,6.85
2023-09-26T02:32:43.993Z,7.20
2023-09-26T02:35:12.767Z,6.65
2023-09-26T02:37:40.120Z,6.93
2023-09-26T02:40:11.372Z,7.32
2023-09-26T02:42:39.188Z,8.45
2023-09-26T02:45:06.720Z,8.13
2023-09-26T02:47:33.852Z,7.03
2023-09-26T02:50:01.378Z,7.57
2023-09-26T02:52:28.517Z,8.13
2023-09-26T02:54:56.885Z,7.75
2023-09-26T02:57:24.324Z,8.18
2023-09-26T02:59:51.374Z,8.43
2023-09-26T03:02:18.473Z,7.55
2023-09-26T03:04:49.634Z,7.25
2023-09-26T03:07:17.163Z,6.25
2023-09-26T03:09:44.729Z,7.07
2023-09-26T03:12:11.785Z,7.00
2023-09-26T03:14:39.178Z,7.13
2023-09-26T03:17:07.308Z,6.68
2023-09-26T03:19:34.543Z,8.10
2023-09-26T03:22:03.578Z,8.05
2023-09-26T03:24:30.777Z,8.55
2023-09-26T03:26:57.964Z,8.80
2023-09-26T03:29:25.033Z,8.80
2023-09-26T03:31:52.251Z,7.93
2023-09-26T03:34:19.492Z,8.73
2023-09-26T03:36:46.625Z,8.43
2023-09-26T03:39:14.088Z,8.30
2023-09-26T03:41:41.165Z,8.85
2023-09-26T03:44:08.302Z,8.32
2023-09-26T03:46:35.960Z,8.40
2023-09-26T03:49:03.569Z,8.93
2023-09-26T03:51:31.202Z,9.20
2023-09-26T03:53:58.500Z,8.90
2023-09-26T03:56:25.603Z,8.32
2023-09-26T03:58:54.905Z,8.00
2023-09-26T04:01:22.130Z,7.97
2023-09-26T04:03:54.005Z,9.00
2023-09-26T04:06:21.311Z,8.70
2023-09-26T04:08:48.610Z,8.35
2023-09-26T04:11:16.409Z,8.45
2023-09-26T04:13:44.047Z,8.40
2023-09-26T04:16:11.428Z,7.95
2023-09-26T04:18:38.851Z,7.95
2023-09-26T04:21:10.142Z,8.02
2023-09-26T04:23:39.184Z,7.55
2023-09-26T04:26:16.501Z,7.63
2023-09-26T04:28:44.200Z,8.30
2023-09-26T04:31:14.900Z,7.70
2023-09-26T04:33:41.723Z,7.57
2023-09-26T04:36:08.618Z,8.02
2023-09-26T04:38:35.516Z,8.30
2023-09-26T04:41:03.991Z,8.18
2023-09-26T04:43:34.610Z,9.48
2023-09-26T04:46:01.885Z,8.48
2023-09-26T04:48:28.658Z,8.55
2023-09-26T04:50:55.770Z,7.78
2023-09-26T04:53:23.307Z,7.97
2023-09-26T04:55:50.576Z,8.13
2023-09-26T04:58:17.561Z,8.35
2023-09-26T05:00:44.926Z,8.55
2023-09-26T05:03:11.720Z,7.07
2023-09-26T05:05:38.561Z,8.15
2023-09-26T05:08:06.098Z,7.55
2023-09-26T05:10:33.356Z,8.55
2023-09-26T05:13:02.304Z,8.48
2023-09-26T05:15:29.267Z,8.52
2023-09-26T05:17:56.015Z,8.98
2023-09-26T05:20:24.659Z,9.10
2023-09-26T05:22:51.993Z,8.35
2023-09-26T05:25:19.105Z,8.65
2023-09-26T05:27:45.896Z,8.98
2023-09-26T05:30:13.868Z,9.10
2023-09-26T05:32:42.495Z,8.60
2023-09-26T05:35:10.689Z,8.63
2023-09-26T05:37:38.510Z,8.30
2023-09-26T05:40:10.484Z,8.52
2023-09-26T05:42:39.173Z,8.32
2023-09-26T05:45:08.002Z,7.68
2023-09-26T05:47:35.742Z,8.38
2023-09-26T05:50:04.624Z,9.23
2023-09-26T05:52:31.434Z,9.45
2023-09-26T05:54:58.381Z,9.93
2023-09-26T05:57:26.312Z,10.00
2023-09-26T05:59:52.976Z,9.63
2023-09-26T06:02:19.703Z,9.95
2023-09-26T06:04:46.856Z,9.45
2023-09-26T06:07:14.631Z,8.77
2023-09-26T06:09:52.920Z,9.13
2023-09-26T06:12:28.074Z,9.55
2023-09-26T06:14:54.790Z,8.55
2023-09-26T06:17:21.608Z,8.48
2023-09-26T06:19:48.721Z,8.55
2023-09-26T06:22:16.315Z,8.30
2023-09-26T06:24:43.997Z,7.47
2023-09-26T06:27:10.659Z,6.85
2023-09-26T06:29:40.608Z,7.60
2023-09-26T06:32:07.938Z,7.55
2023-09-26T06:34:36.822Z,7.50
2023-09-26T06:37:04.119Z,8.82
2023-09-26T06:39:31.192Z,7.15
2023-09-26T06:41:58.036Z,7.10
2023-09-26T06:44:25.158Z,7.55
2023-09-26T06:46:53.309Z,7.13
2023-09-26T06:49:20.490Z,7.72
2023-09-26T06:51:47.479Z,7.63
2023-09-26T06:54:14.511Z,6.97
2023-09-26T06:56:41.359Z,7.88
2023-09-26T06:59:09.759Z,6.88
2023-09-26T07:01:37.079Z,6.72
2023-09-26T07:04:05.286Z,6.97
2023-09-26T07:06:32.283Z,6.03
2023-09-26T07:09:00.410Z,6.47
2023-09-26T07:11:27.823Z,6.13
2023-09-26T07:13:54.554Z,6.63
2023-09-26T07:16:21.383Z,6.32
2023-09-26T07:18:48.209Z,5.60
2023-09-26T07:21:15.251Z,6.00
2023-09-26T07:23:42.020Z,5.88
2023-09-26T07:26:15.535Z,6.10
2023-09-26T07:28:44.449Z,6.07
2023-09-26T07:31:15.501Z,6.50
2023-09-26T07:33:43.163Z,6.57
2023-09-26T07:36:10.884Z,6.32
2023-09-26T07:38:37.908Z,6.22
2023-09-26T07:41:05.352Z,7.53
2023-09-26T07:43:34.236Z,7.13
2023-09-26T07:46:05.933Z,7.43
2023-09-26T07:48:33.369Z,7.15
2023-09-26T07:51:00.109Z,7.93
2023-09-26T07:53:26.897Z,7.90
2023-09-26T07:55:56.362Z,7.75
2023-09-26T07:58:23.378Z,8.13
2023-09-26T08:00:50.086Z,8.32
2023-09-26T08:03:17.577Z,8.25
2023-09-26T08:05:44.234Z,7.50
2023-09-26T08:08:11.310Z,8.35
2023-09-26T08:10:41.919Z,8.05
2023-09-26T08:13:09.063Z,8.55
2023-09-26T08:15:36.390Z,8.52
2023-09-26T08:18:03.999Z,9.13
2023-09-26T08:20:31.308Z,10.25
2023-09-26T08:22:58.508Z,9.63
2023-09-26T08:25:25.795Z,11.10
2023-09-26T08:27:53.011Z,10.93
2023-09-26T08:30:21.427Z,11.75
2023-09-26T08:32:48.554Z,11.98
2023-09-26T08:35:17.083Z,13.00
2023-09-26T08:37:45.196Z,12.48
2023-09-26T08:40:12.702Z,12.30
2023-09-26T08:42:43.294Z,14.00
2023-09-26T08:45:11.184Z,12.70
2023-09-26T08:47:43.552Z,14.25
2023-09-26T08:50:10.936Z,14.73
2023-09-26T08:52:38.299Z,14.38
2023-09-26T08:55:05.560Z,14.18
2023-09-26T08:57:37.577Z,15.15
2023-09-26T09:00:05.179Z,17.52
2023-09-26T09:02:33.444Z,18.00
2023-09-26T09:05:01.249Z,18.30
2023-09-26T09:07:29.244Z,19.17
2023-09-26T09:10:12.930Z,17.60
2023-09-26T09:12:41.970Z,18.08
2023-09-26T09:15:18.724Z,21.38
2023-09-26T09:17:50.056Z,19.25
2023-09-26T09:20:29.085Z,21.33
2023-09-26T09:23:08.187Z,19.60
2023-09-26T09:25:36.338Z,18.30
2023-09-26T09:28:04.451Z,16.02
2023-09-26T09:30:38.014Z,15.50
2023-09-26T09:33:05.645Z,17.80
2023-09-26T09:35:32.793Z,16.15
2023-09-26T09:38:00.054Z,16.35
2023-09-26T09:40:27.283Z,15.77
2023-09-26T09:42:54.435Z,17.10
2023-09-26T09:45:21.699Z,16.25
2023-09-26T09:47:50.017Z,14.45
2023-09-26T09:50:17.692Z,14.50
2023-09-26T09:52:46.222Z,16.35
2023-09-26T09:55:24.845Z,15.45
2023-09-26T09:57:52.712Z,14.65
2023-09-26T10:00:21.454Z,14.52
2023-09-26T10:02:48.636Z,15.50
2023-09-26T10:05:16.007Z,16.50
2023-09-26T10:07:44.464Z,16.35
2023-09-26T10:10:13.171Z,13.23
2023-09-26T10:12:51.008Z,16.08
2023-09-26T10:15:27.481Z,15.63
2023-09-26T10:17:54.935Z,14.45
2023-09-26T10:23:12.136Z,14.02
2023-09-26T10:25:39.364Z,12.88
2023-09-26T10:28:08.425Z,13.85
2023-09-26T10:30:45.946Z,13.20
2023-09-26T10:33:28.029Z,12.00
2023-09-26T10:36:03.414Z,13.82
2023-09-26T10:38:30.978Z,12.48
2023-09-26T10:40:58.100Z,12.80
2023-09-26T10:46:16.102Z,11.40
2023-09-26T10:48:43.349Z,11.13
2023-09-26T10:51:10.541Z,10.98
2023-09-26T10:53:37.885Z,11.05
2023-09-26T10:56:05.336Z,10.95
2023-09-26T10:58:33.579Z,11.20
2023-09-26T11:01:00.753Z,11.23
2023-09-26T11:03:30.334Z,10.30
2023-09-26T11:05:59.570Z,9.75
2023-09-26T11:08:27.421Z,10.15
2023-09-26T11:10:54.660Z,9.13
2023-09-26T11:13:26.023Z,9.65
2023-09-26T11:15:53.819Z,10.18
2023-09-26T11:18:21.117Z,9.52
2023-09-26T11:20:51.404Z,9.45
2023-09-26T11:23:35.773Z,9.60
2023-09-26T11:26:04.966Z,9.25
2023-09-26T11:28:32.702Z,9.20
2023-09-26T11:31:00.459Z,9.05
2023-09-26T11:33:27.551Z,9.35
2023-09-26T11:35:55.285Z,7.47
2023-09-26T11:38:22.357Z,7.90
2023-09-26T11:40:49.570Z,7.03
2023-09-26T11:43:16.800Z,5.22
2023-09-26T11:45:44.037Z,4.78
2023-09-26T11:48:11.335Z,5.32
2023-09-26T11:50:40.908Z,5.13
2023-09-26T11:53:08.477Z,6.22
2023-09-26T11:55:39.988Z,6.30
2023-09-26T11:58:07.142Z,7.13
2023-09-26T12:00:34.207Z,6.45
2023-09-26T12:03:01.391Z,5.63
2023-09-26T12:05:28.783Z,6.18
2023-09-26T12:07:55.866Z,6.95
2023-09-26T12:10:23.925Z,6.78
2023-09-26T12:12:51.130Z,6.65
2023-09-26T12:15:22.418Z,6.97
2023-09-26T12:17:50.517Z,6.47
2023-09-26T12:20:22.255Z,6.32
2023-09-26T12:22:59.433Z,6.22
2023-09-26T12:25:31.303Z,6.43
2023-09-26T12:27:58.649Z,6.38
2023-09-26T12:30:25.820Z,6.90
2023-09-26T12:32:53.177Z,6.38
2023-09-26T12:35:20.642Z,5.95
2023-09-26T12:37:49.161Z,5.25
2023-09-26T12:40:16.430Z,4.93
2023-09-26T12:42:44.251Z,5.93
2023-09-26T12:45:12.135Z,5.40
2023-09-26T12:47:39.874Z,5.20
2023-09-26T12:50:10.974Z,5.65
2023-09-26T12:52:39.638Z,5.60
2023-09-26T12:55:07.051Z,4.45
2023-09-26T12:57:34.500Z,5.55
2023-09-26T13:00:02.226Z,6.20
2023-09-26T13:02:29.548Z,5.53
2023-09-26T13:04:57.576Z,5.70
2023-09-26T13:07:24.730Z,4.93
2023-09-26T13:09:52.225Z,6.38
2023-09-26T13:12:19.509Z,5.70
2023-09-26T13:14:46.808Z,4.75
2023-09-26T13:17:14.356Z,5.80
2023-09-26T13:19:42.335Z,5.50
2023-09-26T13:22:10.361Z,6.18
2023-09-26T13:24:37.755Z,4.32
2023-09-26T13:27:05.265Z,5.53
2023-09-26T13:29:34.159Z,4.63
2023-09-26T13:32:04.823Z,5.63
2023-09-26T13:34:32.139Z,5.35
2023-09-26T13:36:59.603Z,4.43
2023-09-26T13:39:27.081Z,5.30
2023-09-26T13:41:54.393Z,5.85
2023-09-26T13:44:21.564Z,4.65
2023-09-26T13:46:49.132Z,5.40
2023-09-26T13:49:16.489Z,5.00
2023-09-26T13:51:43.652Z,4.60
2023-09-26T13:54:12.966Z,4.65
2023-09-26T13:56:40.320Z,4.30
2023-09-26T13:59:07.729Z,4.25
2023-09-26T14:01:34.981Z,4.47
2023-09-26T14:04:02.284Z,4.88
2023-09-26T14:06:29.504Z,4.65
2023-09-26T14:08:56.771Z,4.78
2023-09-26T14:11:24.807Z,4.80
2023-09-26T14:13:51.984Z,4.38
2023-09-26T14:16:19.283Z,4.82
2023-09-26T14:18:46.366Z,4.30
2023-09-26T14:21:15.511Z,5.25
2023-09-26T14:23:43.154Z,5.10
2023-09-26T14:26:11.080Z,4.68
2023-09-26T14:28:41.498Z,5.18
2023-09-26T14:31:09.720Z,4.97
2023-09-26T14:33:37.512Z,5.10
2023-09-26T14:36:05.000Z,4.55
2023-09-26T14:38:32.099Z,5.05
2023-09-26T14:40:59.236Z,5.28
2023-09-26T14:43:26.379Z,5.20
2023-09-26T14:45:54.472Z,4.63
2023-09-26T14:48:22.058Z,4.47
2023-09-26T14:50:50.682Z,5.13
2023-09-26T14:53:18.151Z,4.60
2023-09-26T14:55:45.532Z,5.15
2023-09-26T14:58:12.763Z,4.68
2023-09-26T15:00:44.029Z,5.65
2023-09-26T15:03:11.665Z,4.63
2023-09-26T15:05:39.104Z,4.93
2023-09-26T15:08:06.639Z,5.32
2023-09-26T15:10:33.902Z,4.55
2023-09-26T15:13:00.971Z,5.03
2023-09-26T15:15:29.633Z,5.20
2023-09-26T15:18:00.074Z,5.20
2023-09-26T15:20:27.595Z,5.28
2023-09-26T15:22:54.911Z,4.57
2023-09-26T15:25:22.088Z,5.82
2023-09-26T15:27:49.801Z,5.38
2023-09-26T15:30:17.245Z,5.72
2023-09-26T15:32:44.500Z,5.28
2023-09-26T15:35:11.884Z,5.65
2023-09-26T15:37:39.223Z,4.93
2023-09-26T15:40:07.294Z,5.10
2023-09-26T15:42:35.098Z,4.88
2023-09-26T15:45:03.917Z,4.95
2023-09-26T15:47:31.511Z,5.45
2023-09-26T15:49:59.105Z,5.53
2023-09-26T15:52:26.251Z,5.22
2023-09-26T15:54:53.500Z,5.15
2023-09-26T15:57:20.694Z,4.93
2023-09-26T15:59:49.199Z,4.50
2023-09-26T16:02:16.661Z,4.93
2023-09-26T16:04:44.447Z,8.32
2023-09-26T16:07:11.903Z,5.85
2023-09-26T16:09:39.531Z,5.88
2023-09-26T16:12:07.643Z,6.88
2023-09-26T16:14:34.745Z,6.07
2023-09-26T16:17:02.208Z,5.68
2023-09-26T16:19:29.599Z,5.47
2023-09-26T16:21:56.679Z,5.60
2023-09-26T16:24:23.843Z,4.85
2023-09-26T16:26:51.055Z,5.22
2023-09-26T16:29:18.176Z,5.85
2023-09-26T16:31:45.473Z,4.90
2023-09-26T16:34:12.658Z,5.53
2023-09-26T16:36:44.438Z,4.90
2023-09-26T16:39:12.794Z,5.03
2023-09-26T16:41:41.043Z,5.70
2023-09-26T16:44:08.597Z,6.30
2023-09-26T16:46:35.902Z,5.05
2023-09-26T16:49:03.377Z,6.03
2023-09-26T16:51:30.577Z,5.93
2023-09-26T16:53:59.348Z,5.85
2023-09-26T16:56:26.889Z,6.25
2023-09-26T16:58:54.618Z,5.30
2023-09-26T17:01:22.161Z,5.50
2023-09-26T17:03:50.432Z,6.45
2023-09-26T17:06:17.877Z,5.93
2023-09-26T17:08:45.176Z,5.88
2023-09-26T17:11:12.438Z,5.88
2023-09-26T17:13:39.883Z,5.38
2023-09-26T17:16:07.369Z,6.68
2023-09-26T17:18:34.751Z,6.95
2023-09-26T17:21:01.913Z,5.85
2023-09-26T17:23:30.326Z,5.80
2023-09-26T17:25:57.670Z,6.57
2023-09-26T17:28:25.004Z,6.50
2023-09-26T17:30:57.146Z,6.68
2023-09-26T17:33:24.326Z,6.70
2023-09-26T17:35:51.494Z,6.05
2023-09-26T17:38:18.755Z,6.90
2023-09-26T17:40:46.067Z,6.75
2023-09-26T17:43:13.411Z,17.35
2023-09-26T17:45:40.521Z,12.38
2023-09-26T17:48:08.100Z,18.10
2023-09-26T17:50:35.247Z,37.97
2023-09-26T17:53:02.483Z,55.83
2023-09-26T17:55:29.569Z,53.38
2023-09-26T17:57:56.703Z,57.03
2023-09-26T18:00:23.886Z,276.35
2023-09-26T18:02:51.068Z,124.20
2023-09-26T18:05:19.635Z,98.25
2023-09-26T18:07:47.856Z,38.45
2023-09-26T18:10:15.249Z,20.35
2023-09-26T18:12:45.193Z,17.88
2023-09-26T18:15:12.366Z,11.55
2023-09-26T18:17:39.713Z,9.77
2023-09-26T18:20:07.257Z,10.05
2023-09-26T18:22:34.425Z,9.30
2023-09-26T18:25:01.572Z,9.85
2023-09-26T18:27:28.762Z,10.18
2023-09-26T18:29:55.871Z,9.15
2023-09-26T18:32:23.084Z,9.98
2023-09-26T18:34:50.442Z,10.73
2023-09-26T18:37:17.552Z,9.48
2023-09-26T18:39:45.422Z,10.90
2023-09-26T18:42:12.519Z,9.63
2023-09-26T18:44:39.615Z,10.13
2023-09-26T18:47:06.726Z,8.80
2023-09-26T18:49:33.829Z,9.75
2023-09-26T18:52:00.917Z,8.13
2023-09-26T18:54:28.012Z,9.52
2023-09-26T18:56:56.868Z,10.35
2023-09-26T18:59:25.346Z,10.05
2023-09-26T19:01:52.634Z,10.45
2023-09-26T19:04:19.974Z,9.80
2023-09-26T19:06:47.269Z,9.68
2023-09-26T19:09:14.534Z,11.05
2023-09-26T19:11:46.109Z,11.90
2023-09-26T19:14:13.483Z,10.90
2023-09-26T19:16:40.808Z,11.73
2023-09-26T19:19:08.451Z,11.25
2023-09-26T19:21:35.697Z,11.00
2023-09-26T19:24:03.052Z,11.55
2023-09-26T19:26:30.525Z,11.95
2023-09-26T19:28:58.149Z,11.82
2023-09-26T19:31:25.557Z,11.98
2023-09-26T19:33:52.791Z,12.70
2023-09-26T19:36:20.323Z,12.55
2023-09-26T19:38:47.458Z,11.50
2023-09-26T19:41:14.845Z,11.93
2023-09-26T19:43:42.256Z,11.52
2023-09-26T19:46:09.365Z,11.85
2023-09-26T19:48:36.525Z,12.13
2023-09-26T19:51:03.719Z,12.55
2023-09-26T19:53:30.962Z,12.25
2023-09-26T19:55:59.369Z,11.68
2023-09-26T19:58:26.480Z,12.00
2023-09-26T20:00:53.579Z,10.93
2023-09-26T20:03:20.769Z,12.27
2023-09-26T20:05:49.912Z,11.68
2023-09-26T20:08:17.312Z,10.45
2023-09-26T20:10:44.970Z,10.43
2023-09-26T20:13:12.126Z,12.05
2023-09-26T20:15:38.807Z,12.98
2023-09-26T20:18:06.335Z,11.55
2023-09-26T20:20:33.644Z,10.95
2023-09-26T20:23:00.871Z,10.85
2023-09-26T20:25:29.538Z,10.63
2023-09-26T20:27:56.708Z,11.20
2023-09-26T20:30:23.801Z,10.63
2023-09-26T20:32:50.937Z,11.75
2023-09-26T20:35:18.065Z,11.68
2023-09-26T20:37:45.214Z,11.13
2023-09-26T20:40:13.432Z,12.15
2023-09-26T20:42:40.837Z,11.40
2023-09-26T20:45:08.578Z,10.73
2023-09-26T20:47:35.713Z,11.52
2023-09-26T20:50:02.996Z,11.50
2023-09-26T20:52:30.149Z,11.40
2023-09-26T20:54:57.347Z,11.77
2023-09-26T20:57:24.643Z,10.82
2023-09-26T20:59:51.746Z,11.50
2023-09-26T21:02:18.822Z,10.65
2023-09-26T21:04:46.355Z,12.02
2023-09-26T21:07:13.470Z,12.23
2023-09-26T21:09:40.614Z,11.32
2023-09-26T21:12:08.945Z,11.10
2023-09-26T21:14:36.586Z,11.50
2023-09-26T21:17:03.708Z,10.70
2023-09-26T21:19:30.862Z,10.13
2023-09-26T21:21:58.027Z,9.57
2023-09-26T21:24:25.087Z,11.75
2023-09-26T21:26:52.215Z,10.65
2023-09-26T21:29:19.389Z,12.05
2023-09-26T21:31:46.674Z,11.50
2023-09-26T21:34:13.489Z,11.05
2023-09-26T21:36:40.152Z,10.95
2023-09-26T21:39:06.876Z,10.80
2023-09-26T21:41:33.577Z,10.55
2023-09-26T21:44:01.149Z,10.43
2023-09-26T21:46:28.043Z,10.50
2023-09-26T21:48:55.193Z,10.63
2023-09-26T21:51:22.150Z,11.57
2023-09-26T21:53:48.876Z,10.88
2023-09-26T21:56:15.618Z,10.93
2023-09-26T21:58:42.320Z,10.90
2023-09-26T22:01:13.694Z,11.27
2023-09-26T22:03:40.806Z,9.70
2023-09-26T22:06:07.959Z,10.93
2023-09-26T22:08:34.791Z,11.77
2023-09-26T22:11:02.129Z,11.57
2023-09-26T22:13:28.852Z,12.43
2023-09-26T22:15:55.903Z,11.15
2023-09-26T22:18:24.915Z,10.32
2023-09-26T22:20:54.679Z,10.82
2023-09-26T22:23:22.187Z,12.82
2023-09-26T22:25:48.976Z,11.52
2023-09-26T22:28:15.706Z,11.82
2023-09-26T22:30:43.018Z,11.93
2023-09-26T22:33:10.187Z,13.40
2023-09-26T22:35:37.537Z,11.70
2023-09-26T22:38:04.856Z,11.65
2023-09-26T22:40:48.270Z,10.60
2023-09-26T22:43:17.111Z,10.05
2023-09-26T22:45:44.205Z,10.48
2023-09-26T22:48:13.481Z,10.20
2023-09-26T22:50:40.520Z,11.23
2023-09-26T22:53:07.202Z,9.75
2023-09-26T22:55:34.244Z,10.32
2023-09-26T22:58:00.959Z,10.15
2023-09-26T23:00:28.173Z,10.23
2023-09-26T23:02:55.398Z,10.13
2023-09-26T23:05:22.587Z,10.60
2023-09-26T23:07:49.745Z,10.55
2023-09-26T23:10:16.899Z,9.98
2023-09-26T23:12:43.981Z,10.55
2023-09-26T23:15:11.136Z,10.77
2023-09-26T23:17:38.503Z,10.55
2023-09-26T23:20:09.428Z,11.05
2023-09-26T23:22:36.848Z,11.85
2023-09-26T23:25:04.729Z,10.70
2023-09-26T23:27:31.921Z,10.52
2023-09-26T23:29:59.004Z,8.93
2023-09-26T23:32:26.263Z,10.48
2023-09-26T23:34:53.407Z,9.20
2023-09-26T23:37:21.153Z,10.25
2023-09-26T23:39:48.329Z,9.77
2023-09-26T23:42:15.472Z,10.27
2023-09-26T23:44:42.616Z,10.35
2023-09-26T23:47:10.412Z,10.35
2023-09-26T23:49:37.553Z,10.27
2023-09-26T23:52:05.141Z,10.80
2023-09-26T23:54:33.263Z,10.48
2023-09-26T23:57:00.449Z,10.85
2023-09-26T23:59:27.601Z,10.93
